Terminal Aerodrome Forecast
Issued by NWS Shreveport, LA

Home | Current Version | Previous Version | Text Only | Print | Product List | Glossary On
Versions: 1 2 3 4 5 6 7 8 9 10 11 12 13 14 15 16
000
FTUS44 KSHV 161700 RRA
TAFMLU
TAF
KMLU 161753Z 1618/1718 20008KT P6SM BKN280
     FM170000 17004KT P6SM BKN250
     FM170400 VRB03KT P6SM BKN180
     FM171600 15006KT P6SM BKN035=

USA.gov is the U.S. government's official web portal to all federal, state and local government web resources and services.